createdAt,value
2022-10-20T00:01:24.817Z,107.40
2022-10-20T00:03:54.983Z,96.00
2022-10-20T00:06:25.393Z,90.97
2022-10-20T00:08:53.795Z,89.22
2022-10-20T00:11:22.411Z,82.90
2022-10-20T00:13:51.467Z,92.15
2022-10-20T00:16:19.074Z,92.50
2022-10-20T00:18:46.382Z,90.05
2022-10-20T00:21:18.702Z,83.95
2022-10-20T00:23:46.114Z,87.55
2022-10-20T00:26:16.271Z,75.57
2022-10-20T00:28:45.366Z,76.50
2022-10-20T00:31:13.237Z,72.97
2022-10-20T00:33:40.960Z,76.65
2022-10-20T00:36:16.844Z,71.88
2022-10-20T00:38:45.227Z,67.78
2022-10-20T00:41:14.640Z,72.15
2022-10-20T00:43:55.708Z,70.85
2022-10-20T00:46:25.715Z,67.78
2022-10-20T00:48:56.523Z,68.75
2022-10-20T00:51:30.349Z,64.28
2022-10-20T00:54:12.072Z,95.90
2022-10-20T00:56:42.660Z,77.18
2022-10-20T00:59:12.153Z,67.28
2022-10-20T01:01:40.248Z,62.30
2022-10-20T01:04:07.820Z,60.05
2022-10-20T01:06:35.456Z,64.45
2022-10-20T01:09:05.902Z,63.22
2022-10-20T01:12:08.207Z,67.90
2022-10-20T01:14:44.102Z,57.50
2022-10-20T01:17:41.370Z,56.15
2022-10-20T01:20:46.379Z,52.72
2022-10-20T01:23:32.562Z,54.03
2022-10-20T01:26:27.652Z,56.10
2022-10-20T01:29:00.931Z,53.55
2022-10-20T01:31:45.007Z,53.05
2022-10-20T01:34:27.808Z,58.50
2022-10-20T01:36:59.933Z,61.30
2022-10-20T01:39:47.389Z,57.95
2022-10-20T01:42:19.781Z,55.22
2022-10-20T01:44:48.372Z,68.35
2022-10-20T01:47:16.730Z,78.82
2022-10-20T01:49:46.407Z,63.70
2022-10-20T01:52:14.304Z,64.85
2022-10-20T01:54:41.627Z,65.22
2022-10-20T01:57:11.342Z,67.63
2022-10-20T02:00:03.832Z,61.45
2022-10-20T02:02:42.049Z,61.70
2022-10-20T02:05:11.802Z,59.38
2022-10-20T02:07:39.916Z,63.47
2022-10-20T02:10:20.374Z,64.40
2022-10-20T02:12:51.383Z,103.07
2022-10-20T02:15:23.680Z,67.40
2022-10-20T02:17:59.360Z,65.15
2022-10-20T02:20:29.702Z,70.72
2022-10-20T02:23:00.984Z,58.60
2022-10-20T02:25:29.928Z,54.75
2022-10-20T02:30:31.477Z,65.45
2022-10-20T02:32:59.143Z,64.45
2022-10-20T02:35:30.291Z,59.60
2022-10-20T02:37:58.368Z,59.55
2022-10-20T02:40:26.445Z,60.10
2022-10-20T02:42:54.104Z,58.40
2022-10-20T02:45:21.507Z,63.65
2022-10-20T02:47:48.814Z,58.78
2022-10-20T02:50:17.244Z,60.80
2022-10-20T02:52:46.164Z,60.97
2022-10-20T02:55:13.770Z,52.85
2022-10-20T02:57:41.151Z,54.58
2022-10-20T03:00:09.325Z,60.35
2022-10-20T03:02:36.619Z,60.50
2022-10-20T03:05:04.273Z,61.95
2022-10-20T03:07:31.835Z,59.28
2022-10-20T03:09:59.243Z,55.33
2022-10-20T03:12:28.909Z,53.95
2022-10-20T03:14:58.832Z,56.65
2022-10-20T03:17:28.736Z,55.70
2022-10-20T03:19:56.097Z,51.90
2022-10-20T03:22:23.656Z,50.50
2022-10-20T03:24:51.518Z,61.05
2022-10-20T03:27:18.946Z,53.85
2022-10-20T03:29:46.501Z,53.20
2022-10-20T03:32:20.140Z,51.75
2022-10-20T03:34:47.490Z,58.97
2022-10-20T03:37:14.845Z,59.17
2022-10-20T03:39:42.682Z,48.53
2022-10-20T03:42:10.033Z,53.17
2022-10-20T03:44:38.752Z,53.70
2022-10-20T03:47:06.121Z,47.60
2022-10-20T03:49:37.456Z,49.80
2022-10-20T03:52:05.130Z,51.53
2022-10-20T03:54:35.832Z,46.95
2022-10-20T03:57:07.830Z,42.08
2022-10-20T03:59:35.451Z,135.95
2022-10-20T04:02:03.092Z,66.50
2022-10-20T04:04:30.614Z,49.38
2022-10-20T04:07:16.567Z,46.92
2022-10-20T04:09:43.852Z,48.17
2022-10-20T04:12:11.316Z,46.25
2022-10-20T04:14:39.369Z,43.60
2022-10-20T04:17:06.753Z,43.85
2022-10-20T04:19:34.496Z,44.83
2022-10-20T04:22:01.763Z,44.70
2022-10-20T04:24:29.983Z,44.58
2022-10-20T04:26:57.551Z,44.50
2022-10-20T04:29:25.164Z,46.65
2022-10-20T04:31:52.670Z,43.78
2022-10-20T04:34:20.051Z,41.15
2022-10-20T04:36:50.440Z,42.58
2022-10-20T04:39:17.960Z,43.78
2022-10-20T04:41:45.333Z,42.28
2022-10-20T04:44:12.645Z,40.35
2022-10-20T04:46:40.219Z,40.92
2022-10-20T04:49:08.496Z,38.78
2022-10-20T04:51:37.540Z,43.88
2022-10-20T04:56:37.416Z,43.28
2022-10-20T04:59:08.416Z,35.95
2022-10-20T05:01:39.947Z,35.17
2022-10-20T05:04:07.598Z,36.65
2022-10-20T05:06:36.021Z,32.15
2022-10-20T05:09:06.674Z,39.60
2022-10-20T05:11:37.072Z,36.05
2022-10-20T05:14:04.911Z,35.88
2022-10-20T05:16:32.219Z,33.92
2022-10-20T05:18:59.967Z,34.38
2022-10-20T05:21:29.743Z,35.10
2022-10-20T05:23:59.622Z,31.02
2022-10-20T05:26:28.600Z,32.70
2022-10-20T05:28:55.890Z,33.03
2022-10-20T05:31:23.987Z,35.47
2022-10-20T05:33:54.707Z,32.00
2022-10-20T05:36:24.662Z,31.67
2022-10-20T05:38:53.906Z,33.15
2022-10-20T05:41:24.595Z,32.17
2022-10-20T05:44:00.104Z,36.45
2022-10-20T05:46:34.546Z,35.20
2022-10-20T05:49:03.732Z,33.47
2022-10-20T05:51:34.901Z,30.27
2022-10-20T05:54:03.713Z,39.17
2022-10-20T05:56:31.953Z,28.73
2022-10-20T05:58:59.192Z,26.88
2022-10-20T06:01:47.754Z,26.95
2022-10-20T06:04:23.374Z,18.17
2022-10-20T06:06:54.363Z,16.52
2022-10-20T06:09:24.595Z,19.85
2022-10-20T06:11:54.506Z,12.88
2022-10-20T06:14:23.753Z,11.05
2022-10-20T06:16:52.493Z,6.45
2022-10-20T06:19:20.752Z,8.18
2022-10-20T06:21:50.273Z,4.88
2022-10-20T06:24:18.773Z,3.60
2022-10-20T06:26:49.284Z,5.93
2022-10-20T06:29:19.374Z,3.97
2022-10-20T06:31:48.870Z,4.18
2022-10-20T06:34:21.252Z,4.82
2022-10-20T06:36:49.579Z,5.32
2022-10-20T06:39:19.577Z,6.15
2022-10-20T06:41:50.314Z,8.07
2022-10-20T06:44:24.696Z,6.90
2022-10-20T06:46:53.989Z,8.75
2022-10-20T06:49:24.159Z,8.18
2022-10-20T06:51:51.513Z,10.55
2022-10-20T06:54:21.931Z,13.57
2022-10-20T06:57:03.823Z,14.95
2022-10-20T06:59:31.374Z,13.15
2022-10-20T07:03:02.556Z,9.73
2022-10-20T07:05:35.440Z,14.10
2022-10-20T07:08:03.496Z,15.60
2022-10-20T07:10:34.087Z,7.97
2022-10-20T07:13:02.365Z,9.35
2022-10-20T07:38:48.794Z,3.92
2022-10-20T07:41:16.092Z,2.10
2022-10-20T07:43:43.764Z,1.70
2022-10-20T07:46:14.949Z,2.72
2022-10-20T07:48:42.360Z,2.65
2022-10-20T07:51:30.218Z,2.22
2022-10-20T07:54:03.437Z,3.42
2022-10-20T07:56:40.959Z,2.80
2022-10-20T07:59:09.686Z,2.50
2022-10-20T08:01:38.762Z,3.25
2022-10-20T08:04:09.074Z,2.55
2022-10-20T08:06:41.400Z,1.65
2022-10-20T08:09:09.963Z,3.30
2022-10-20T08:11:39.394Z,5.85
2022-10-20T08:14:08.200Z,2.38
2022-10-20T08:16:43.251Z,2.67
2022-10-20T08:19:16.732Z,2.17
2022-10-20T08:21:44.240Z,2.22
2022-10-20T08:24:11.707Z,2.22
2022-10-20T08:26:39.875Z,2.13
2022-10-20T08:29:09.781Z,2.63
2022-10-20T08:31:39.202Z,2.72
2022-10-20T08:34:06.417Z,2.17
2022-10-20T08:36:34.061Z,3.60
2022-10-20T08:39:05.044Z,4.28
2022-10-20T08:42:02.522Z,2.45
2022-10-20T08:44:28.375Z,1.00
2022-10-20T08:46:56.189Z,1.40
2022-10-20T08:49:26.429Z,5.78
2022-10-20T08:51:55.154Z,1.15
2022-10-20T08:54:22.546Z,1.73
2022-10-20T08:56:50.017Z,0.98
2022-10-20T08:59:30.379Z,2.95
2022-10-20T09:01:58.080Z,0.88
2022-10-20T09:04:40.739Z,2.92
2022-10-20T09:07:23.727Z,0.90
2022-10-20T09:09:51.425Z,1.40
2022-10-20T09:12:20.270Z,1.80
2022-10-20T09:14:47.635Z,1.60
2022-10-20T09:17:17.238Z,2.45
2022-10-20T09:19:52.755Z,0.95
2022-10-20T09:22:22.325Z,1.50
2022-10-20T09:24:59.322Z,2.05
2022-10-20T09:27:34.603Z,1.45
2022-10-20T09:33:28.442Z,1.92
2022-10-20T09:36:11.949Z,2.28
2022-10-20T09:38:47.234Z,2.20
2022-10-20T09:41:21.330Z,1.52
2022-10-20T09:43:58.260Z,2.45
2022-10-20T09:46:35.081Z,2.28
2022-10-20T09:49:21.121Z,3.05
2022-10-20T09:51:48.576Z,1.80
2022-10-20T09:54:21.335Z,1.05
2022-10-20T09:56:52.928Z,1.27
2022-10-20T09:59:32.526Z,1.25
2022-10-20T10:02:02.288Z,0.82
2022-10-20T10:04:43.301Z,1.13
2022-10-20T10:07:22.757Z,1.05
2022-10-20T10:10:08.664Z,1.20
2022-10-20T10:12:36.611Z,1.92
2022-10-20T10:15:28.010Z,1.02
2022-10-20T10:17:56.830Z,2.17
2022-10-20T10:20:38.514Z,1.25
2022-10-20T10:23:25.146Z,1.45
2022-10-20T10:25:53.405Z,1.33
2022-10-20T10:28:29.529Z,3.03
2022-10-20T10:31:20.946Z,1.50
2022-10-20T10:33:51.347Z,2.25
2022-10-20T10:36:24.399Z,1.98
2022-10-20T10:38:54.836Z,2.03
2022-10-20T10:41:55.402Z,1.52
2022-10-20T10:45:46.698Z,2.28
2022-10-20T10:48:42.388Z,5.50
2022-10-20T10:51:28.049Z,1.30
2022-10-20T10:53:59.037Z,1.15
2022-10-20T10:56:34.270Z,1.15
2022-10-20T10:59:06.492Z,0.70
2022-10-20T11:01:53.293Z,1.00
2022-10-20T11:20:10.981Z,5.97
2022-10-20T11:22:57.433Z,5.50
2022-10-20T11:25:38.637Z,4.88
2022-10-20T11:28:32.700Z,6.57
2022-10-20T11:31:00.688Z,4.65
2022-10-20T11:33:44.734Z,3.40
2022-10-20T11:36:19.761Z,5.05
2022-10-20T11:38:55.245Z,4.55
2022-10-20T11:44:25.690Z,5.25
2022-10-20T11:47:06.111Z,4.32
2022-10-20T11:49:34.032Z,3.88
2022-10-20T11:52:23.505Z,3.95
2022-10-20T11:55:14.762Z,1.83
2022-10-20T11:57:42.616Z,2.10
2022-10-20T12:03:08.643Z,3.33
2022-10-20T12:05:47.887Z,2.40
2022-10-20T12:08:37.514Z,2.17
2022-10-20T12:11:23.788Z,6.05
2022-10-20T12:14:03.098Z,4.28
2022-10-20T12:16:54.580Z,3.33
2022-10-20T12:19:34.420Z,3.38
2022-10-20T12:22:06.906Z,5.90
2022-10-20T12:24:38.230Z,4.43
2022-10-20T12:30:39.172Z,5.65
2022-10-20T12:33:38.368Z,5.28
2022-10-20T12:36:18.034Z,4.70
2022-10-20T12:39:27.807Z,6.85
2022-10-20T12:41:59.744Z,7.15
2022-10-20T12:44:29.892Z,6.18
2022-10-20T12:47:06.958Z,7.22
2022-10-20T12:49:40.723Z,11.88
2022-10-20T12:52:36.901Z,12.77
2022-10-20T12:55:26.004Z,16.13
2022-10-20T12:58:24.108Z,18.17
2022-10-20T13:10:00.416Z,17.67
2022-10-20T13:12:40.045Z,14.05
2022-10-20T13:15:13.716Z,10.90
2022-10-20T13:18:01.991Z,12.95
2022-10-20T13:21:06.789Z,8.30
2022-10-20T13:24:06.103Z,8.38
2022-10-20T13:27:09.537Z,7.35
2022-10-20T13:30:00.317Z,7.90
2022-10-20T13:33:02.042Z,8.02
2022-10-20T13:35:43.070Z,7.18
2022-10-20T13:38:17.756Z,7.80
2022-10-20T13:40:50.691Z,7.88
2022-10-20T13:43:58.265Z,8.15
2022-10-20T13:46:33.415Z,7.03
2022-10-20T13:49:17.431Z,8.10
2022-10-20T13:51:52.451Z,6.22
2022-10-20T13:54:36.339Z,6.82
2022-10-20T13:57:08.932Z,6.93
2022-10-20T13:59:55.586Z,5.90
2022-10-20T14:02:33.814Z,6.68
2022-10-20T14:05:11.892Z,6.50
2022-10-20T14:07:42.431Z,7.30
2022-10-20T14:10:33.114Z,5.60
2022-10-20T14:13:01.742Z,5.05
2022-10-20T14:15:33.337Z,8.68
2022-10-20T14:18:07.423Z,6.10
